createdAt,value
2023-02-06T00:00:22.346Z,23.23
2023-02-06T00:02:51.624Z,16.13
2023-02-06T00:05:22.293Z,15.70
2023-02-06T00:07:51.419Z,23.73
2023-02-06T00:10:20.685Z,35.00
2023-02-06T00:12:49.926Z,42.72
2023-02-06T00:15:19.405Z,46.17
2023-02-06T00:17:48.471Z,58.88
2023-02-06T00:20:17.526Z,45.78
2023-02-06T00:22:47.952Z,41.47
2023-02-06T00:25:17.059Z,33.78
2023-02-06T00:27:46.092Z,31.67
2023-02-06T00:30:15.525Z,32.25
2023-02-06T00:32:44.591Z,32.30
2023-02-06T00:35:13.735Z,41.75
2023-02-06T00:37:43.105Z,41.58
2023-02-06T00:40:14.035Z,33.63
2023-02-06T00:42:43.918Z,34.92
2023-02-06T00:45:13.734Z,26.88
2023-02-06T00:47:43.737Z,25.70
2023-02-06T00:50:12.901Z,25.73
2023-02-06T00:52:42.222Z,26.10
2023-02-06T00:55:11.280Z,22.67
2023-02-06T00:57:41.933Z,22.00
2023-02-06T01:00:12.575Z,26.58
2023-02-06T01:02:41.926Z,22.67
2023-02-06T01:05:11.669Z,21.30
2023-02-06T01:07:41.361Z,20.38
2023-02-06T01:10:11.518Z,21.17
2023-02-06T01:15:13.922Z,20.37
2023-02-06T01:17:43.289Z,20.50
2023-02-06T01:20:15.573Z,21.02
2023-02-06T01:22:44.685Z,20.35
2023-02-06T01:25:14.352Z,22.15
2023-02-06T01:27:44.875Z,14.95
2023-02-06T01:30:14.834Z,15.15
2023-02-06T01:32:44.565Z,14.30
2023-02-06T01:35:14.261Z,12.57
2023-02-06T01:37:43.486Z,14.65
2023-02-06T01:40:16.845Z,12.38
2023-02-06T01:42:47.338Z,8.45
2023-02-06T01:45:41.110Z,14.77
2023-02-06T01:48:14.542Z,11.73
2023-02-06T01:50:47.527Z,17.65
2023-02-06T01:53:19.080Z,17.40
2023-02-06T01:55:50.914Z,13.30
2023-02-06T01:58:28.456Z,13.30
2023-02-06T02:00:58.736Z,12.00
2023-02-06T02:03:28.545Z,18.13
2023-02-06T02:06:01.359Z,15.95
2023-02-06T02:08:35.027Z,11.32
2023-02-06T02:11:06.986Z,12.30
2023-02-06T02:13:38.444Z,20.70
2023-02-06T02:16:16.315Z,17.77
2023-02-06T02:19:04.296Z,16.02
2023-02-06T02:22:01.263Z,22.90
2023-02-06T02:24:52.747Z,25.17
2023-02-06T02:27:53.754Z,19.38
2023-02-06T02:30:52.718Z,20.83
2023-02-06T02:33:48.183Z,20.60
2023-02-06T02:36:23.699Z,25.45
2023-02-06T02:39:00.900Z,17.77
2023-02-06T02:41:39.790Z,22.90
2023-02-06T02:44:11.800Z,18.85
2023-02-06T02:46:45.963Z,18.67
2023-02-06T02:49:19.415Z,22.80
2023-02-06T02:51:52.118Z,19.50
2023-02-06T02:54:21.576Z,17.48
2023-02-06T02:56:50.622Z,16.77
2023-02-06T02:59:25.437Z,18.23
2023-02-06T03:02:00.519Z,14.70
2023-02-06T03:04:38.657Z,19.08
2023-02-06T03:07:23.731Z,14.38
2023-02-06T03:10:01.826Z,22.80
2023-02-06T03:12:38.803Z,16.63
2023-02-06T03:15:18.724Z,18.00
2023-02-06T03:17:54.196Z,16.98
2023-02-06T03:20:24.752Z,15.07
2023-02-06T03:22:55.864Z,13.85
2023-02-06T03:27:57.108Z,9.40
2023-02-06T03:30:28.385Z,10.85
2023-02-06T03:35:33.178Z,8.20
2023-02-06T03:38:04.327Z,13.63
2023-02-06T03:43:05.613Z,9.00
2023-02-06T03:45:38.179Z,10.48
2023-02-06T03:48:12.946Z,11.55
2023-02-06T03:50:45.416Z,13.90
2023-02-06T03:53:17.340Z,7.25
2023-02-06T03:55:48.297Z,7.40
2023-02-06T03:58:17.293Z,12.00
2023-02-06T04:00:47.648Z,10.07
2023-02-06T04:03:17.392Z,9.77
2023-02-06T04:05:46.497Z,11.77
2023-02-06T04:08:16.900Z,12.75
2023-02-06T04:10:45.886Z,8.90
2023-02-06T04:13:14.881Z,10.95
2023-02-06T04:15:43.994Z,8.23
2023-02-06T04:18:13.061Z,10.88
2023-02-06T04:20:42.203Z,10.60
2023-02-06T04:23:11.255Z,12.25
2023-02-06T04:25:41.649Z,15.98
2023-02-06T04:28:10.737Z,17.27
2023-02-06T04:30:39.991Z,13.13
2023-02-06T04:33:09.027Z,9.75
2023-02-06T04:35:38.232Z,9.98
2023-02-06T04:38:07.442Z,8.68
2023-02-06T04:40:36.502Z,7.30
2023-02-06T04:43:06.977Z,9.90
2023-02-06T04:45:36.426Z,11.32
2023-02-06T04:48:06.028Z,22.60
2023-02-06T04:50:35.169Z,18.27
2023-02-06T04:53:04.194Z,12.13
2023-02-06T04:55:33.255Z,10.38
2023-02-06T04:58:02.329Z,8.60
2023-02-06T05:00:32.795Z,8.45
2023-02-06T05:03:01.807Z,8.32
2023-02-06T05:05:30.818Z,8.98
2023-02-06T05:07:59.919Z,9.32
2023-02-06T05:10:29.009Z,11.32
2023-02-06T05:12:58.048Z,7.90
2023-02-06T05:15:27.151Z,5.70
2023-02-06T05:17:57.601Z,6.63
2023-02-06T05:20:26.763Z,5.93
2023-02-06T05:22:55.836Z,7.07
2023-02-06T05:25:24.927Z,6.88
2023-02-06T05:27:54.074Z,7.82
2023-02-06T05:30:23.260Z,9.68
2023-02-06T05:32:52.509Z,8.30
2023-02-06T05:35:22.925Z,8.32
2023-02-06T05:37:51.952Z,8.32
2023-02-06T05:40:21.222Z,6.32
2023-02-06T05:42:50.403Z,11.40
2023-02-06T05:45:19.723Z,7.90
2023-02-06T05:47:48.817Z,9.90
2023-02-06T05:50:17.924Z,7.57
2023-02-06T05:52:48.395Z,5.90
2023-02-06T05:55:18.452Z,4.53
2023-02-06T05:57:47.454Z,3.78
2023-02-06T06:00:17.232Z,3.22
2023-02-06T06:02:46.312Z,3.03
2023-02-06T06:05:15.408Z,3.63
2023-02-06T06:07:44.473Z,2.47
2023-02-06T06:10:15.550Z,2.10
2023-02-06T06:15:13.531Z,3.75
2023-02-06T06:17:42.597Z,2.28
2023-02-06T06:20:12.631Z,1.60
2023-02-06T06:22:41.788Z,4.18
2023-02-06T06:25:10.905Z,3.67
2023-02-06T06:27:41.565Z,3.53
2023-02-06T06:30:12.230Z,2.35
2023-02-06T06:32:41.356Z,1.85
2023-02-06T06:35:10.426Z,1.85
2023-02-06T06:37:39.644Z,2.13
2023-02-06T06:40:09.522Z,3.00
2023-02-06T06:42:40.213Z,2.38
2023-02-06T06:45:09.997Z,6.05
2023-02-06T06:47:39.068Z,3.70
2023-02-06T06:50:08.956Z,3.95
2023-02-06T06:52:38.062Z,2.38
2023-02-06T06:55:07.835Z,4.40
2023-02-06T06:57:36.875Z,2.42
2023-02-06T07:00:09.224Z,5.25
2023-02-06T07:02:38.427Z,3.75
2023-02-06T07:05:07.911Z,3.65
2023-02-06T07:07:39.132Z,5.70
2023-02-06T07:10:09.428Z,5.78
2023-02-06T07:12:38.525Z,3.83
2023-02-06T07:15:10.037Z,4.20
2023-02-06T07:17:39.279Z,5.00
2023-02-06T07:20:09.446Z,4.38
2023-02-06T07:22:38.580Z,2.22
2023-02-06T07:25:08.257Z,6.93
2023-02-06T07:27:37.278Z,5.32
2023-02-06T07:30:08.743Z,4.22
2023-02-06T07:32:38.290Z,5.82
2023-02-06T07:35:08.230Z,5.18
2023-02-06T07:37:37.301Z,4.35
2023-02-06T07:40:07.321Z,8.20
2023-02-06T07:42:36.377Z,7.03
2023-02-06T07:45:18.448Z,7.05
2023-02-06T07:47:47.499Z,8.32
2023-02-06T07:50:16.820Z,5.47
2023-02-06T07:52:45.976Z,7.40
2023-02-06T07:55:14.987Z,3.15
2023-02-06T07:57:44.121Z,4.18
2023-02-06T08:00:14.460Z,5.57
2023-02-06T08:02:45.182Z,5.32
2023-02-06T08:05:14.493Z,9.23
2023-02-06T08:07:43.467Z,10.20
2023-02-06T08:10:12.829Z,6.95
2023-02-06T08:12:42.061Z,6.18
2023-02-06T08:15:11.561Z,6.95
2023-02-06T08:17:42.852Z,7.60
2023-02-06T08:20:14.235Z,6.72
2023-02-06T08:22:43.390Z,9.27
2023-02-06T08:25:12.836Z,11.38
2023-02-06T08:27:42.304Z,6.28
2023-02-06T08:30:12.823Z,9.35
2023-02-06T08:32:42.106Z,10.82
2023-02-06T08:35:12.791Z,11.50
2023-02-06T08:37:42.438Z,12.73
2023-02-06T08:40:12.758Z,10.75
2023-02-06T08:42:41.786Z,17.40
2023-02-06T08:45:11.366Z,23.38
2023-02-06T08:47:40.442Z,19.25
2023-02-06T08:50:09.854Z,15.80
2023-02-06T08:52:40.410Z,16.60
2023-02-06T08:55:09.845Z,12.77
2023-02-06T08:57:39.066Z,12.02
2023-02-06T09:00:09.655Z,13.88
2023-02-06T09:02:38.741Z,10.45
2023-02-06T09:05:08.092Z,13.77
2023-02-06T09:07:37.170Z,11.18
2023-02-06T09:10:13.688Z,13.70
2023-02-06T09:12:55.083Z,14.95
2023-02-06T09:15:24.201Z,11.90
2023-02-06T09:17:53.316Z,18.33
2023-02-06T09:20:22.909Z,17.23
2023-02-06T09:22:52.083Z,12.25
2023-02-06T09:25:22.488Z,12.43
2023-02-06T09:27:51.613Z,11.25
2023-02-06T09:30:20.727Z,15.40
2023-02-06T09:32:49.801Z,17.08
2023-02-06T09:35:19.014Z,22.13
2023-02-06T09:37:48.029Z,18.48
2023-02-06T09:40:20.803Z,11.75
2023-02-06T09:42:53.519Z,15.88
2023-02-06T09:45:25.802Z,24.80
2023-02-06T09:47:58.428Z,17.65
2023-02-06T09:50:31.932Z,17.95
2023-02-06T09:53:13.215Z,13.32
2023-02-06T09:58:23.686Z,11.48
2023-02-06T10:00:59.793Z,17.02
2023-02-06T10:03:50.558Z,20.52
2023-02-06T10:06:23.659Z,22.67
2023-02-06T10:09:00.394Z,16.40
2023-02-06T10:11:45.388Z,10.57
2023-02-06T10:14:22.524Z,18.65
2023-02-06T10:16:57.677Z,16.60
2023-02-06T10:19:41.404Z,12.35
2023-02-06T10:22:15.616Z,13.57
2023-02-06T10:24:53.621Z,13.38
2023-02-06T10:27:22.867Z,17.25
2023-02-06T10:29:53.572Z,14.68
2023-02-06T10:32:37.535Z,12.38
2023-02-06T10:35:29.842Z,9.20
2023-02-06T10:38:20.788Z,11.88
2023-02-06T10:40:55.910Z,12.70
2023-02-06T10:43:37.114Z,8.48
2023-02-06T10:48:47.795Z,14.25
2023-02-06T10:51:21.156Z,14.02
2023-02-06T10:53:53.115Z,16.02
2023-02-06T10:56:25.090Z,15.30
2023-02-06T10:58:57.236Z,14.38
2023-02-06T11:01:33.679Z,15.70
2023-02-06T11:04:07.457Z,11.73
2023-02-06T11:06:37.011Z,16.20
2023-02-06T11:09:06.367Z,16.30
2023-02-06T11:11:39.094Z,11.40
2023-02-06T11:14:15.642Z,7.93
2023-02-06T11:16:47.577Z,13.95
2023-02-06T11:19:20.232Z,8.98
2023-02-06T11:22:08.617Z,9.95
2023-02-06T11:24:39.398Z,11.07
2023-02-06T11:27:16.565Z,8.80
2023-02-06T11:29:49.402Z,14.93
2023-02-06T11:32:58.873Z,11.23
2023-02-06T11:35:36.291Z,16.58
2023-02-06T11:38:14.557Z,19.02
2023-02-06T11:40:43.977Z,5.93
2023-02-06T11:43:21.652Z,11.35
2023-02-06T11:45:54.043Z,11.55
2023-02-06T11:48:37.532Z,8.32
2023-02-06T11:51:07.931Z,11.40
2023-02-06T11:53:38.238Z,7.73
2023-02-06T11:56:18.002Z,8.45
2023-02-06T11:59:04.937Z,31.73
2023-02-06T12:01:43.978Z,12.85
2023-02-06T12:04:23.996Z,14.20
2023-02-06T12:07:00.573Z,9.60
2023-02-06T12:09:30.135Z,8.55
2023-02-06T12:12:02.947Z,13.13
2023-02-06T12:14:37.128Z,15.00
2023-02-06T12:17:17.012Z,8.90
2023-02-06T12:19:52.362Z,6.43
2023-02-06T12:22:25.270Z,11.70
2023-02-06T12:24:56.756Z,9.15
2023-02-06T12:27:31.736Z,7.80
2023-02-06T12:30:05.173Z,6.88
2023-02-06T12:32:39.784Z,9.23
2023-02-06T12:35:21.768Z,12.20
2023-02-06T12:37:55.372Z,7.78
2023-02-06T12:40:38.952Z,11.38
2023-02-06T12:43:11.093Z,10.38
2023-02-06T12:45:48.895Z,15.25
2023-02-06T12:48:23.012Z,10.73
2023-02-06T12:51:04.799Z,12.15
2023-02-06T12:53:39.050Z,9.43
2023-02-06T12:56:17.094Z,10.55
2023-02-06T12:58:55.316Z,7.88
2023-02-06T13:01:43.136Z,10.63
2023-02-06T13:04:17.323Z,11.43
2023-02-06T13:06:53.471Z,16.70
2023-02-06T13:09:27.131Z,16.77
2023-02-06T13:12:08.366Z,23.55
2023-02-06T13:14:39.876Z,11.55
2023-02-06T13:17:12.061Z,13.90
2023-02-06T13:20:05.941Z,12.35
2023-02-06T13:22:46.417Z,14.20
2023-02-06T13:25:49.256Z,9.60
2023-02-06T13:29:10.135Z,18.73
2023-02-06T13:31:39.768Z,39.10
2023-02-06T13:34:18.960Z,38.33
2023-02-06T13:36:51.166Z,46.33
2023-02-06T13:39:28.796Z,20.75
2023-02-06T13:42:03.843Z,18.48
2023-02-06T13:44:35.520Z,25.80
2023-02-06T13:47:33.648Z,31.35
2023-02-06T13:50:40.372Z,23.77
2023-02-06T13:53:44.654Z,81.45
2023-02-06T13:56:38.672Z,46.38
2023-02-06T13:59:15.679Z,32.72
2023-02-06T14:01:45.408Z,14.90
2023-02-06T14:04:23.324Z,33.00
2023-02-06T14:07:11.243Z,9.95
2023-02-06T14:09:58.125Z,15.02
2023-02-06T14:12:44.621Z,12.88
2023-02-06T14:15:22.323Z,17.58
2023-02-06T14:18:04.214Z,18.50
2023-02-06T14:20:42.413Z,16.67
2023-02-06T14:23:22.234Z,15.50
2023-02-06T14:26:22.063Z,19.58
2023-02-06T14:29:03.151Z,20.13
2023-02-06T14:31:46.793Z,12.75
2023-02-06T14:34:29.746Z,16.30
2023-02-06T14:37:26.153Z,15.98
2023-02-06T14:39:56.169Z,17.20
2023-02-06T14:42:29.134Z,22.55
2023-02-06T14:45:03.410Z,24.23
2023-02-06T14:47:40.178Z,20.08
2023-02-06T14:50:15.933Z,19.60
2023-02-06T14:52:47.370Z,16.15
2023-02-06T14:58:04.216Z,23.77
2023-02-06T15:00:35.115Z,28.73
2023-02-06T15:03:08.048Z,24.60
2023-02-06T15:05:37.626Z,24.25
2023-02-06T15:08:08.192Z,21.88
2023-02-06T15:10:38.813Z,31.73
2023-02-06T15:13:07.802Z,23.60
2023-02-06T15:15:38.629Z,23.88
2023-02-06T15:18:09.764Z,22.52
2023-02-06T15:20:41.182Z,20.15
2023-02-06T15:23:18.393Z,23.92
2023-02-06T15:26:00.241Z,17.77
2023-02-06T15:28:31.593Z,21.23
2023-02-06T15:33:33.931Z,15.27
2023-02-06T15:36:05.206Z,20.88
2023-02-06T15:38:35.473Z,18.58
2023-02-06T15:41:07.585Z,20.65
2023-02-06T15:43:37.410Z,20.23
2023-02-06T15:46:08.545Z,12.90
2023-02-06T15:48:41.468Z,23.35
2023-02-06T15:51:24.334Z,26.70
2023-02-06T15:54:07.605Z,21.58
2023-02-06T15:56:41.111Z,29.73
2023-02-06T15:59:17.850Z,33.22
2023-02-06T16:01:50.180Z,23.73
2023-02-06T16:04:24.338Z,40.05
2023-02-06T16:07:03.243Z,29.15
2023-02-06T16:09:33.469Z,40.65
2023-02-06T16:12:02.798Z,55.88
2023-02-06T16:14:36.998Z,46.38
2023-02-06T16:17:26.513Z,67.35
2023-02-06T16:19:57.979Z,42.60
2023-02-06T16:22:29.913Z,48.92
2023-02-06T16:25:15.418Z,36.20
2023-02-06T16:27:46.508Z,43.65
2023-02-06T16:30:26.590Z,51.70
2023-02-06T16:32:58.923Z,34.67
2023-02-06T16:35:28.207Z,34.38
2023-02-06T16:38:00.965Z,28.83
2023-02-06T16:40:30.265Z,29.63
2023-02-06T16:42:59.569Z,23.40
2023-02-06T16:45:29.120Z,31.38
2023-02-06T16:47:59.656Z,17.02
2023-02-06T16:50:28.666Z,26.50
2023-02-06T16:53:04.427Z,21.05
2023-02-06T16:55:33.564Z,20.60
2023-02-06T16:58:03.422Z,20.85
2023-02-06T17:00:33.547Z,15.75
2023-02-06T17:03:03.969Z,12.23
2023-02-06T17:05:34.976Z,18.07
2023-02-06T17:08:04.958Z,19.33
2023-02-06T17:10:34.012Z,15.48
2023-02-06T17:13:03.016Z,22.58
2023-02-06T17:15:32.415Z,25.83
2023-02-06T17:18:01.937Z,24.58
2023-02-06T17:20:36.066Z,25.45
2023-02-06T17:23:05.929Z,42.75
2023-02-06T17:25:39.045Z,38.22
2023-02-06T17:28:09.664Z,21.42
2023-02-06T17:30:40.156Z,26.65
2023-02-06T17:33:10.354Z,25.10
2023-02-06T17:35:44.152Z,30.77
2023-02-06T17:38:13.205Z,27.10
2023-02-06T17:40:42.325Z,29.23
2023-02-06T17:43:11.610Z,21.80
2023-02-06T17:45:41.395Z,18.42
2023-02-06T17:48:10.859Z,24.38
2023-02-06T17:50:41.732Z,27.77
2023-02-06T17:53:14.961Z,28.50
2023-02-06T17:55:45.206Z,25.15
2023-02-06T17:58:14.338Z,22.77
2023-02-06T18:00:43.472Z,36.38
2023-02-06T18:03:17.095Z,56.58
2023-02-06T18:05:47.205Z,57.35
2023-02-06T18:08:18.447Z,41.28
2023-02-06T18:13:16.243Z,50.40
2023-02-06T18:15:51.072Z,100.90
2023-02-06T18:18:20.268Z,54.40
2023-02-06T18:20:49.617Z,29.55
2023-02-06T18:23:20.612Z,34.42
2023-02-06T18:25:49.898Z,30.10
2023-02-06T18:28:20.020Z,21.35
2023-02-06T18:30:49.330Z,26.00
2023-02-06T18:33:18.532Z,27.90
2023-02-06T18:35:50.757Z,24.75
2023-02-06T18:38:21.669Z,25.35
2023-02-06T18:40:50.713Z,28.40
2023-02-06T18:43:18.730Z,23.50
2023-02-06T18:45:47.802Z,27.02
2023-02-06T18:48:16.899Z,23.45
2023-02-06T18:50:45.970Z,25.98
2023-02-06T18:53:16.032Z,26.02
2023-02-06T18:55:46.482Z,26.70
2023-02-06T18:58:15.615Z,24.27
2023-02-06T19:00:44.780Z,30.17
2023-02-06T19:03:13.809Z,25.65
2023-02-06T19:05:42.854Z,29.23
2023-02-06T19:08:12.126Z,25.42
2023-02-06T19:10:41.313Z,25.50
2023-02-06T19:13:11.708Z,19.95
2023-02-06T19:15:40.802Z,26.13
2023-02-06T19:18:10.827Z,23.63
2023-02-06T19:20:42.749Z,21.48
2023-02-06T19:23:11.783Z,27.75
2023-02-06T19:25:43.379Z,27.42
2023-02-06T19:28:13.878Z,22.27
2023-02-06T19:30:42.967Z,32.45
2023-02-06T19:33:12.002Z,21.90
2023-02-06T19:35:41.504Z,24.75
2023-02-06T19:38:10.681Z,21.83
2023-02-06T19:40:39.911Z,23.58
2023-02-06T19:43:09.227Z,20.08
2023-02-06T19:45:39.844Z,17.88
2023-02-06T19:48:13.254Z,19.33
2023-02-06T19:50:43.323Z,22.35
2023-02-06T19:53:15.675Z,22.48
2023-02-06T19:55:48.431Z,20.08
2023-02-06T19:58:17.461Z,22.52
2023-02-06T20:00:47.997Z,22.42
2023-02-06T20:03:17.125Z,30.80
2023-02-06T20:05:46.410Z,32.60
2023-02-06T20:08:15.563Z,26.10
2023-02-06T20:10:45.188Z,31.05
2023-02-06T20:13:14.462Z,33.63
2023-02-06T20:15:43.561Z,30.08
2023-02-06T20:18:14.438Z,27.20
2023-02-06T20:20:43.731Z,26.23
2023-02-06T20:23:12.773Z,24.52
2023-02-06T20:25:45.850Z,29.98
2023-02-06T20:28:15.954Z,21.02
2023-02-06T20:30:48.012Z,21.00
2023-02-06T20:33:19.147Z,45.67
2023-02-06T20:35:48.228Z,46.70
2023-02-06T20:38:17.415Z,29.35
2023-02-06T20:40:51.635Z,21.88
2023-02-06T20:43:20.882Z,24.88
2023-02-06T20:45:49.976Z,21.40
2023-02-06T20:48:20.422Z,21.48
2023-02-06T20:50:49.525Z,30.58
2023-02-06T20:53:18.654Z,26.63
2023-02-06T20:55:48.008Z,24.40
2023-02-06T20:58:17.810Z,25.23
2023-02-06T21:00:50.381Z,24.95
2023-02-06T21:03:21.287Z,24.90
2023-02-06T21:05:57.487Z,23.10
2023-02-06T21:08:30.261Z,23.55
2023-02-06T21:10:59.357Z,25.33
2023-02-06T21:13:28.368Z,25.73
2023-02-06T21:16:01.988Z,21.85
2023-02-06T21:18:33.388Z,16.58
2023-02-06T21:21:09.418Z,14.85
2023-02-06T21:23:39.757Z,19.52
2023-02-06T21:26:10.321Z,18.07
2023-02-06T21:28:39.872Z,25.20
2023-02-06T21:31:11.341Z,25.65
2023-02-06T21:33:41.939Z,22.27
2023-02-06T21:36:11.457Z,20.92
2023-02-06T21:38:41.098Z,19.60
2023-02-06T21:41:11.832Z,27.85
2023-02-06T21:43:41.129Z,22.92
2023-02-06T21:46:11.343Z,21.92
2023-02-06T21:48:42.111Z,22.33
2023-02-06T21:51:12.528Z,16.30
2023-02-06T21:53:42.493Z,23.15
2023-02-06T21:56:15.222Z,16.95
2023-02-06T21:58:44.509Z,18.42
2023-02-06T22:01:16.172Z,21.25
2023-02-06T22:03:47.862Z,19.52
2023-02-06T22:06:19.885Z,20.13
2023-02-06T22:08:51.840Z,18.05
2023-02-06T22:11:22.471Z,17.60
2023-02-06T22:13:52.868Z,19.65
2023-02-06T22:16:23.382Z,13.30
2023-02-06T22:18:54.372Z,16.92
2023-02-06T22:21:25.215Z,18.67
2023-02-06T22:23:56.805Z,19.17
2023-02-06T22:26:26.650Z,16.58
2023-02-06T22:28:55.909Z,21.45
2023-02-06T22:31:27.272Z,17.83
2023-02-06T22:33:58.963Z,14.57
2023-02-06T22:36:29.623Z,18.80
2023-02-06T22:39:00.885Z,19.20
2023-02-06T22:43:59.361Z,19.58
2023-02-06T22:46:31.780Z,13.68
2023-02-06T22:49:02.488Z,23.30
2023-02-06T22:51:31.494Z,19.42
2023-02-06T22:54:01.685Z,13.70
2023-02-06T22:56:34.934Z,10.02
2023-02-06T22:59:05.747Z,16.27
2023-02-06T23:01:36.751Z,19.73
2023-02-06T23:04:09.373Z,10.75
2023-02-06T23:06:38.524Z,14.40
2023-02-06T23:09:09.193Z,15.07
2023-02-06T23:11:38.258Z,16.13
2023-02-06T23:14:08.579Z,15.00
2023-02-06T23:16:37.668Z,14.10
2023-02-06T23:19:08.786Z,18.02
2023-02-06T23:21:39.471Z,15.38
2023-02-06T23:24:10.571Z,18.83
2023-02-06T23:26:42.052Z,26.90
2023-02-06T23:29:15.786Z,11.15
2023-02-06T23:31:45.722Z,15.65
2023-02-06T23:34:19.145Z,13.93
2023-02-06T23:36:48.566Z,15.05
2023-02-06T23:39:17.590Z,13.93
2023-02-06T23:41:46.680Z,9.30
2023-02-06T23:44:15.668Z,14.60
2023-02-06T23:46:44.725Z,13.15
2023-02-06T23:49:15.156Z,18.60
2023-02-06T23:51:46.734Z,12.05
2023-02-06T23:54:15.873Z,12.63
2023-02-06T23:56:45.040Z,11.68
2023-02-06T23:59:15.256Z,20.83
